sensor_id;sensor_type;location;lat;lon;timestamp;P1;durP1;ratioP1;P2;durP2;ratioP2
35444;SDS011;21562;49.476;6.086;2023-04-05T00:01:30;5.68;;;2.50;;
35444;SDS011;21562;49.476;6.086;2023-04-05T00:03:56;7.05;;;2.92;;
35444;SDS011;21562;49.476;6.086;2023-04-05T00:06:26;8.43;;;3.53;;
35444;SDS011;21562;49.476;6.086;2023-04-05T00:08:57;6.10;;;2.88;;
35444;SDS011;21562;49.476;6.086;2023-04-05T00:11:27;8.05;;;2.65;;
35444;SDS011;21562;49.476;6.086;2023-04-05T00:13:55;6.75;;;3.78;;
35444;SDS011;21562;49.476;6.086;2023-04-05T00:16:21;6.63;;;3.03;;
35444;SDS011;21562;49.476;6.086;2023-04-05T00:18:47;8.25;;;3.53;;
35444;SDS011;21562;49.476;6.086;2023-04-05T00:21:16;6.65;;;3.33;;
35444;SDS011;21562;49.476;6.086;2023-04-05T00:23:45;8.18;;;3.72;;
35444;SDS011;21562;49.476;6.086;2023-04-05T00:26:12;6.65;;;3.25;;
35444;SDS011;21562;49.476;6.086;2023-04-05T00:28:38;7.93;;;3.10;;
35444;SDS011;21562;49.476;6.086;2023-04-05T00:31:04;8.10;;;3.60;;
35444;SDS011;21562;49.476;6.086;2023-04-05T00:33:30;8.43;;;3.30;;
35444;SDS011;21562;49.476;6.086;2023-04-05T00:35:55;7.32;;;3.33;;
35444;SDS011;21562;49.476;6.086;2023-04-05T00:38:21;6.88;;;3.45;;
35444;SDS011;21562;49.476;6.086;2023-04-05T00:40:47;6.40;;;3.28;;
35444;SDS011;21562;49.476;6.086;2023-04-05T00:43:12;6.53;;;3.70;;
35444;SDS011;21562;49.476;6.086;2023-04-05T00:45:38;7.18;;;3.28;;
35444;SDS011;21562;49.476;6.086;2023-04-05T00:48:04;6.88;;;3.45;;
35444;SDS011;21562;49.476;6.086;2023-04-05T00:50:30;7.80;;;4.18;;
35444;SDS011;21562;49.476;6.086;2023-04-05T00:52:57;5.57;;;3.58;;
35444;SDS011;21562;49.476;6.086;2023-04-05T00:55:23;8.70;;;3.58;;
35444;SDS011;21562;49.476;6.086;2023-04-05T00:57:50;9.25;;;4.13;;
35444;SDS011;21562;49.476;6.086;2023-04-05T01:00:17;5.72;;;2.85;;
35444;SDS011;21562;49.476;6.086;2023-04-05T01:02:49;8.95;;;3.75;;
35444;SDS011;21562;49.476;6.086;2023-04-05T01:08:07;11.85;;;3.70;;
35444;SDS011;21562;49.476;6.086;2023-04-05T01:10:35;7.38;;;3.15;;
35444;SDS011;21562;49.476;6.086;2023-04-05T01:13:06;6.57;;;2.85;;
35444;SDS011;21562;49.476;6.086;2023-04-05T01:15:32;5.63;;;3.13;;
35444;SDS011;21562;49.476;6.086;2023-04-05T01:17:58;5.57;;;3.30;;
35444;SDS011;21562;49.476;6.086;2023-04-05T01:20:26;7.40;;;3.20;;
35444;SDS011;21562;49.476;6.086;2023-04-05T01:23:15;5.35;;;2.85;;
35444;SDS011;21562;49.476;6.086;2023-04-05T01:26:22;5.53;;;3.08;;
35444;SDS011;21562;49.476;6.086;2023-04-05T01:29:14;5.68;;;3.65;;
35444;SDS011;21562;49.476;6.086;2023-04-05T01:31:58;6.88;;;2.83;;
35444;SDS011;21562;49.476;6.086;2023-04-05T01:37:18;6.60;;;3.35;;
35444;SDS011;21562;49.476;6.086;2023-04-05T01:39:46;10.95;;;3.40;;
35444;SDS011;21562;49.476;6.086;2023-04-05T01:42:13;8.02;;;3.67;;
35444;SDS011;21562;49.476;6.086;2023-04-05T01:44:38;6.40;;;2.92;;
35444;SDS011;21562;49.476;6.086;2023-04-05T01:47:04;7.50;;;3.05;;
35444;SDS011;21562;49.476;6.086;2023-04-05T01:49:30;7.75;;;3.80;;
35444;SDS011;21562;49.476;6.086;2023-04-05T01:51:55;12.15;;;3.28;;
35444;SDS011;21562;49.476;6.086;2023-04-05T01:54:21;7.05;;;3.35;;
35444;SDS011;21562;49.476;6.086;2023-04-05T01:56:46;5.18;;;3.00;;
35444;SDS011;21562;49.476;6.086;2023-04-05T01:59:12;8.50;;;2.97;;
35444;SDS011;21562;49.476;6.086;2023-04-05T02:01:37;8.35;;;3.03;;
35444;SDS011;21562;49.476;6.086;2023-04-05T02:04:03;6.05;;;2.97;;
35444;SDS011;21562;49.476;6.086;2023-04-05T02:06:29;8.98;;;2.92;;
35444;SDS011;21562;49.476;6.086;2023-04-05T02:08:55;9.02;;;2.90;;
35444;SDS011;21562;49.476;6.086;2023-04-05T02:11:21;8.13;;;3.42;;
35444;SDS011;21562;49.476;6.086;2023-04-05T02:13:47;6.78;;;3.08;;
35444;SDS011;21562;49.476;6.086;2023-04-05T02:16:12;9.40;;;3.67;;
35444;SDS011;21562;49.476;6.086;2023-04-05T02:18:39;8.05;;;3.65;;
35444;SDS011;21562;49.476;6.086;2023-04-05T02:21:05;11.10;;;4.00;;
35444;SDS011;21562;49.476;6.086;2023-04-05T02:23:35;7.68;;;3.22;;
35444;SDS011;21562;49.476;6.086;2023-04-05T02:26:01;5.07;;;2.97;;
35444;SDS011;21562;49.476;6.086;2023-04-05T02:28:27;9.18;;;3.10;;
35444;SDS011;21562;49.476;6.086;2023-04-05T02:30:53;8.63;;;3.25;;
35444;SDS011;21562;49.476;6.086;2023-04-05T02:33:20;6.82;;;2.85;;
35444;SDS011;21562;49.476;6.086;2023-04-05T02:35:48;5.05;;;2.88;;
35444;SDS011;21562;49.476;6.086;2023-04-05T02:38:15;6.40;;;3.28;;
35444;SDS011;21562;49.476;6.086;2023-04-05T02:40:41;7.82;;;3.30;;
35444;SDS011;21562;49.476;6.086;2023-04-05T02:43:07;4.75;;;3.03;;
35444;SDS011;21562;49.476;6.086;2023-04-05T02:45:32;5.82;;;3.10;;
35444;SDS011;21562;49.476;6.086;2023-04-05T02:47:58;6.28;;;3.15;;
35444;SDS011;21562;49.476;6.086;2023-04-05T02:50:24;3.78;;;2.75;;
35444;SDS011;21562;49.476;6.086;2023-04-05T02:52:49;9.80;;;3.33;;
35444;SDS011;21562;49.476;6.086;2023-04-05T02:55:15;8.20;;;2.75;;
35444;SDS011;21562;49.476;6.086;2023-04-05T02:57:44;8.00;;;3.22;;
35444;SDS011;21562;49.476;6.086;2023-04-05T03:00:10;10.38;;;3.28;;
35444;SDS011;21562;49.476;6.086;2023-04-05T03:02:36;9.07;;;3.10;;
35444;SDS011;21562;49.476;6.086;2023-04-05T03:05:04;8.20;;;3.42;;
35444;SDS011;21562;49.476;6.086;2023-04-05T03:07:31;10.57;;;3.45;;
35444;SDS011;21562;49.476;6.086;2023-04-05T03:09:57;8.93;;;3.63;;
35444;SDS011;21562;49.476;6.086;2023-04-05T03:12:23;7.70;;;3.35;;
35444;SDS011;21562;49.476;6.086;2023-04-05T03:14:49;8.18;;;3.60;;
35444;SDS011;21562;49.476;6.086;2023-04-05T03:17:15;7.18;;;4.10;;
35444;SDS011;21562;49.476;6.086;2023-04-05T03:19:40;10.43;;;3.40;;
35444;SDS011;21562;49.476;6.086;2023-04-05T03:22:06;6.65;;;3.50;;
35444;SDS011;21562;49.476;6.086;2023-04-05T03:24:32;11.20;;;4.07;;
35444;SDS011;21562;49.476;6.086;2023-04-05T03:27:00;6.28;;;3.25;;
35444;SDS011;21562;49.476;6.086;2023-04-05T03:29:27;12.73;;;3.67;;
35444;SDS011;21562;49.476;6.086;2023-04-05T03:31:52;9.00;;;3.85;;
35444;SDS011;21562;49.476;6.086;2023-04-05T03:34:18;7.43;;;2.58;;
35444;SDS011;21562;49.476;6.086;2023-04-05T03:36:43;8.35;;;3.60;;
35444;SDS011;21562;49.476;6.086;2023-04-05T03:39:10;9.35;;;3.75;;
35444;SDS011;21562;49.476;6.086;2023-04-05T03:41:37;8.98;;;3.88;;
35444;SDS011;21562;49.476;6.086;2023-04-05T03:44:04;10.32;;;4.05;;
35444;SDS011;21562;49.476;6.086;2023-04-05T03:46:31;8.52;;;3.58;;
35444;SDS011;21562;49.476;6.086;2023-04-05T03:48:57;8.35;;;4.20;;
35444;SDS011;21562;49.476;6.086;2023-04-05T03:51:23;7.00;;;4.30;;
35444;SDS011;21562;49.476;6.086;2023-04-05T03:53:49;12.48;;;4.07;;
35444;SDS011;21562;49.476;6.086;2023-04-05T03:56:15;22.77;;;7.30;;
35444;SDS011;21562;49.476;6.086;2023-04-05T03:58:41;32.30;;;11.40;;
35444;SDS011;21562;49.476;6.086;2023-04-05T04:01:08;10.57;;;5.63;;
35444;SDS011;21562;49.476;6.086;2023-04-05T04:03:34;10.00;;;4.60;;
35444;SDS011;21562;49.476;6.086;2023-04-05T04:06:01;6.10;;;4.07;;
35444;SDS011;21562;49.476;6.086;2023-04-05T04:08:30;9.18;;;3.35;;
35444;SDS011;21562;49.476;6.086;2023-04-05T04:10:56;7.55;;;4.18;;
35444;SDS011;21562;49.476;6.086;2023-04-05T04:13:22;7.13;;;4.18;;
35444;SDS011;21562;49.476;6.086;2023-04-05T04:15:48;8.65;;;3.83;;
35444;SDS011;21562;49.476;6.086;2023-04-05T04:18:13;7.88;;;3.53;;
35444;SDS011;21562;49.476;6.086;2023-04-05T04:20:39;6.30;;;3.72;;
35444;SDS011;21562;49.476;6.086;2023-04-05T04:23:05;9.43;;;4.30;;
35444;SDS011;21562;49.476;6.086;2023-04-05T04:25:34;7.63;;;3.83;;
35444;SDS011;21562;49.476;6.086;2023-04-05T04:28:03;6.47;;;4.15;;
35444;SDS011;21562;49.476;6.086;2023-04-05T04:30:33;11.20;;;4.57;;
35444;SDS011;21562;49.476;6.086;2023-04-05T04:32:59;10.70;;;4.35;;
35444;SDS011;21562;49.476;6.086;2023-04-05T04:35:28;11.05;;;4.50;;
35444;SDS011;21562;49.476;6.086;2023-04-05T04:38:01;8.77;;;4.50;;
35444;SDS011;21562;49.476;6.086;2023-04-05T04:43:09;8.85;;;4.32;;
35444;SDS011;21562;49.476;6.086;2023-04-05T04:45:38;9.02;;;4.30;;
35444;SDS011;21562;49.476;6.086;2023-04-05T04:48:04;15.02;;;4.50;;
35444;SDS011;21562;49.476;6.086;2023-04-05T04:50:30;8.02;;;3.70;;
35444;SDS011;21562;49.476;6.086;2023-04-05T04:52:59;8.10;;;3.63;;
35444;SDS011;21562;49.476;6.086;2023-04-05T04:55:26;9.55;;;4.57;;
35444;SDS011;21562;49.476;6.086;2023-04-05T04:57:52;9.45;;;4.80;;
35444;SDS011;21562;49.476;6.086;2023-04-05T05:00:18;12.15;;;5.30;;
35444;SDS011;21562;49.476;6.086;2023-04-05T05:02:45;9.02;;;4.78;;
35444;SDS011;21562;49.476;6.086;2023-04-05T05:05:11;9.55;;;4.80;;
35444;SDS011;21562;49.476;6.086;2023-04-05T05:07:37;11.02;;;5.35;;
35444;SDS011;21562;49.476;6.086;2023-04-05T05:10:08;13.73;;;5.35;;
35444;SDS011;21562;49.476;6.086;2023-04-05T05:12:34;11.48;;;4.65;;
35444;SDS011;21562;49.476;6.086;2023-04-05T05:15:00;8.98;;;5.20;;
35444;SDS011;21562;49.476;6.086;2023-04-05T05:17:25;7.65;;;4.18;;
35444;SDS011;21562;49.476;6.086;2023-04-05T05:19:51;13.50;;;4.70;;
35444;SDS011;21562;49.476;6.086;2023-04-05T05:22:17;11.18;;;4.53;;
35444;SDS011;21562;49.476;6.086;2023-04-05T05:24:45;6.75;;;4.40;;
35444;SDS011;21562;49.476;6.086;2023-04-05T05:27:12;10.70;;;4.30;;
35444;SDS011;21562;49.476;6.086;2023-04-05T05:29:37;11.60;;;4.38;;
35444;SDS011;21562;49.476;6.086;2023-04-05T05:32:03;14.02;;;5.63;;
35444;SDS011;21562;49.476;6.086;2023-04-05T05:34:29;9.48;;;4.65;;
35444;SDS011;21562;49.476;6.086;2023-04-05T05:36:54;14.27;;;5.07;;
35444;SDS011;21562;49.476;6.086;2023-04-05T05:39:20;13.88;;;4.53;;
35444;SDS011;21562;49.476;6.086;2023-04-05T05:41:47;8.82;;;4.80;;
35444;SDS011;21562;49.476;6.086;2023-04-05T05:44:13;9.85;;;4.65;;
35444;SDS011;21562;49.476;6.086;2023-04-05T05:46:39;9.00;;;4.68;;
35444;SDS011;21562;49.476;6.086;2023-04-05T05:49:04;16.80;;;5.07;;
35444;SDS011;21562;49.476;6.086;2023-04-05T05:51:30;9.02;;;5.10;;
35444;SDS011;21562;49.476;6.086;2023-04-05T05:53:56;11.55;;;4.82;;
35444;SDS011;21562;49.476;6.086;2023-04-05T05:56:22;20.90;;;5.68;;
35444;SDS011;21562;49.476;6.086;2023-04-05T05:58:47;15.27;;;5.28;;
35444;SDS011;21562;49.476;6.086;2023-04-05T06:01:13;17.35;;;5.80;;
35444;SDS011;21562;49.476;6.086;2023-04-05T06:03:39;16.52;;;5.68;;
35444;SDS011;21562;49.476;6.086;2023-04-05T06:06:05;17.20;;;7.90;;
35444;SDS011;21562;49.476;6.086;2023-04-05T06:08:32;16.38;;;6.50;;
35444;SDS011;21562;49.476;6.086;2023-04-05T06:10:58;17.25;;;6.07;;
35444;SDS011;21562;49.476;6.086;2023-04-05T06:13:24;12.23;;;6.05;;
35444;SDS011;21562;49.476;6.086;2023-04-05T06:15:50;17.75;;;6.90;;
35444;SDS011;21562;49.476;6.086;2023-04-05T06:18:16;14.02;;;5.75;;
35444;SDS011;21562;49.476;6.086;2023-04-05T06:20:41;16.20;;;6.22;;
35444;SDS011;21562;49.476;6.086;2023-04-05T06:23:09;13.27;;;6.18;;
35444;SDS011;21562;49.476;6.086;2023-04-05T06:25:35;17.42;;;7.78;;
35444;SDS011;21562;49.476;6.086;2023-04-05T06:28:02;18.38;;;7.97;;
35444;SDS011;21562;49.476;6.086;2023-04-05T06:30:28;16.52;;;8.18;;
35444;SDS011;21562;49.476;6.086;2023-04-05T06:32:54;13.55;;;6.95;;
35444;SDS011;21562;49.476;6.086;2023-04-05T06:35:21;16.58;;;7.25;;
35444;SDS011;21562;49.476;6.086;2023-04-05T06:37:46;13.60;;;6.97;;
35444;SDS011;21562;49.476;6.086;2023-04-05T06:40:12;15.98;;;6.68;;
35444;SDS011;21562;49.476;6.086;2023-04-05T06:42:38;14.70;;;7.03;;
35444;SDS011;21562;49.476;6.086;2023-04-05T06:45:04;16.48;;;6.80;;
35444;SDS011;21562;49.476;6.086;2023-04-05T06:47:37;15.20;;;6.28;;
35444;SDS011;21562;49.476;6.086;2023-04-05T06:50:05;14.15;;;7.22;;
35444;SDS011;21562;49.476;6.086;2023-04-05T06:52:32;13.60;;;7.32;;
35444;SDS011;21562;49.476;6.086;2023-04-05T06:54:58;15.50;;;7.75;;
35444;SDS011;21562;49.476;6.086;2023-04-05T06:57:24;13.90;;;7.70;;
35444;SDS011;21562;49.476;6.086;2023-04-05T06:59:50;15.05;;;6.28;;
35444;SDS011;21562;49.476;6.086;2023-04-05T07:02:16;16.30;;;6.38;;
35444;SDS011;21562;49.476;6.086;2023-04-05T07:04:42;13.88;;;6.88;;
35444;SDS011;21562;49.476;6.086;2023-04-05T07:07:08;15.68;;;6.35;;
35444;SDS011;21562;49.476;6.086;2023-04-05T07:09:34;23.02;;;8.60;;
35444;SDS011;21562;49.476;6.086;2023-04-05T07:12:01;22.65;;;7.60;;
35444;SDS011;21562;49.476;6.086;2023-04-05T07:14:32;24.27;;;7.70;;
35444;SDS011;21562;49.476;6.086;2023-04-05T07:16:58;17.15;;;6.68;;
35444;SDS011;21562;49.476;6.086;2023-04-05T07:19:24;19.80;;;6.15;;
35444;SDS011;21562;49.476;6.086;2023-04-05T07:21:50;15.77;;;6.00;;
35444;SDS011;21562;49.476;6.086;2023-04-05T07:24:16;20.48;;;6.38;;
35444;SDS011;21562;49.476;6.086;2023-04-05T07:26:42;17.48;;;6.43;;
35444;SDS011;21562;49.476;6.086;2023-04-05T07:29:08;12.50;;;5.97;;
35444;SDS011;21562;49.476;6.086;2023-04-05T07:31:35;11.95;;;5.85;;
35444;SDS011;21562;49.476;6.086;2023-04-05T07:34:02;15.73;;;5.97;;
35444;SDS011;21562;49.476;6.086;2023-04-05T07:36:27;17.40;;;6.40;;
35444;SDS011;21562;49.476;6.086;2023-04-05T07:38:55;13.05;;;6.25;;
35444;SDS011;21562;49.476;6.086;2023-04-05T07:41:21;15.88;;;6.25;;
35444;SDS011;21562;49.476;6.086;2023-04-05T07:43:48;16.35;;;6.03;;
35444;SDS011;21562;49.476;6.086;2023-04-05T07:46:14;16.38;;;6.75;;
35444;SDS011;21562;49.476;6.086;2023-04-05T07:48:40;19.55;;;6.13;;
35444;SDS011;21562;49.476;6.086;2023-04-05T07:51:06;18.58;;;6.05;;
35444;SDS011;21562;49.476;6.086;2023-04-05T07:53:33;17.02;;;5.75;;
35444;SDS011;21562;49.476;6.086;2023-04-05T07:56:06;20.60;;;7.63;;
35444;SDS011;21562;49.476;6.086;2023-04-05T07:58:32;20.35;;;6.30;;
35444;SDS011;21562;49.476;6.086;2023-04-05T08:00:59;12.52;;;6.60;;
35444;SDS011;21562;49.476;6.086;2023-04-05T08:03:25;11.00;;;6.10;;
35444;SDS011;21562;49.476;6.086;2023-04-05T08:05:51;14.43;;;6.38;;
35444;SDS011;21562;49.476;6.086;2023-04-05T08:08:16;14.00;;;5.38;;
35444;SDS011;21562;49.476;6.086;2023-04-05T08:10:42;18.80;;;5.82;;
35444;SDS011;21562;49.476;6.086;2023-04-05T08:13:08;16.98;;;5.45;;
35444;SDS011;21562;49.476;6.086;2023-04-05T08:15:33;11.93;;;5.80;;
35444;SDS011;21562;49.476;6.086;2023-04-05T08:17:59;10.20;;;4.93;;
35444;SDS011;21562;49.476;6.086;2023-04-05T08:20:25;13.45;;;5.32;;
35444;SDS011;21562;49.476;6.086;2023-04-05T08:22:50;12.18;;;4.55;;
35444;SDS011;21562;49.476;6.086;2023-04-05T08:25:16;25.83;;;5.97;;
35444;SDS011;21562;49.476;6.086;2023-04-05T08:27:42;9.98;;;4.80;;
35444;SDS011;21562;49.476;6.086;2023-04-05T08:30:07;12.32;;;4.65;;
35444;SDS011;21562;49.476;6.086;2023-04-05T08:32:34;8.05;;;4.53;;
35444;SDS011;21562;49.476;6.086;2023-04-05T08:35:00;7.30;;;4.30;;
35444;SDS011;21562;49.476;6.086;2023-04-05T08:37:26;8.30;;;4.72;;
35444;SDS011;21562;49.476;6.086;2023-04-05T08:39:52;10.43;;;4.60;;
35444;SDS011;21562;49.476;6.086;2023-04-05T08:42:18;8.52;;;5.07;;
35444;SDS011;21562;49.476;6.086;2023-04-05T08:44:53;11.40;;;4.93;;
35444;SDS011;21562;49.476;6.086;2023-04-05T08:47:23;9.93;;;4.72;;
35444;SDS011;21562;49.476;6.086;2023-04-05T08:49:50;9.02;;;4.43;;
35444;SDS011;21562;49.476;6.086;2023-04-05T08:52:16;11.00;;;4.65;;
35444;SDS011;21562;49.476;6.086;2023-04-05T08:54:43;14.82;;;5.00;;
35444;SDS011;21562;49.476;6.086;2023-04-05T08:57:08;12.13;;;5.18;;
35444;SDS011;21562;49.476;6.086;2023-04-05T08:59:38;10.07;;;5.55;;
35444;SDS011;21562;49.476;6.086;2023-04-05T09:02:16;8.25;;;4.65;;
35444;SDS011;21562;49.476;6.086;2023-04-05T09:04:43;12.40;;;5.05;;
35444;SDS011;21562;49.476;6.086;2023-04-05T09:07:10;10.25;;;4.85;;
35444;SDS011;21562;49.476;6.086;2023-04-05T09:09:38;10.23;;;4.70;;
35444;SDS011;21562;49.476;6.086;2023-04-05T09:12:06;10.32;;;5.05;;
35444;SDS011;21562;49.476;6.086;2023-04-05T09:14:35;12.73;;;5.00;;
35444;SDS011;21562;49.476;6.086;2023-04-05T09:17:02;11.00;;;4.97;;
35444;SDS011;21562;49.476;6.086;2023-04-05T09:19:28;16.98;;;4.93;;
35444;SDS011;21562;49.476;6.086;2023-04-05T09:24:30;8.45;;;4.85;;
35444;SDS011;21562;49.476;6.086;2023-04-05T09:29:36;7.95;;;4.22;;
35444;SDS011;21562;49.476;6.086;2023-04-05T09:32:03;10.45;;;4.60;;
35444;SDS011;21562;49.476;6.086;2023-04-05T09:34:31;8.88;;;4.45;;
35444;SDS011;21562;49.476;6.086;2023-04-05T09:36:57;10.85;;;4.40;;
35444;SDS011;21562;49.476;6.086;2023-04-05T09:39:28;10.30;;;4.78;;
35444;SDS011;21562;49.476;6.086;2023-04-05T09:42:03;10.13;;;4.40;;
35444;SDS011;21562;49.476;6.086;2023-04-05T09:44:47;9.10;;;4.80;;
35444;SDS011;21562;49.476;6.086;2023-04-05T09:47:19;7.60;;;5.00;;
35444;SDS011;21562;49.476;6.086;2023-04-05T09:49:46;8.02;;;4.68;;
35444;SDS011;21562;49.476;6.086;2023-04-05T09:54:43;8.60;;;4.40;;
35444;SDS011;21562;49.476;6.086;2023-04-05T09:57:09;8.60;;;3.95;;
35444;SDS011;21562;49.476;6.086;2023-04-05T09:59:35;7.78;;;4.60;;
35444;SDS011;21562;49.476;6.086;2023-04-05T10:02:03;9.60;;;4.93;;
35444;SDS011;21562;49.476;6.086;2023-04-05T10:04:41;9.07;;;4.32;;
35444;SDS011;21562;49.476;6.086;2023-04-05T10:07:10;12.60;;;5.65;;
35444;SDS011;21562;49.476;6.086;2023-04-05T10:09:39;8.60;;;5.07;;
35444;SDS011;21562;49.476;6.086;2023-04-05T10:12:07;10.88;;;5.72;;
35444;SDS011;21562;49.476;6.086;2023-04-05T10:14:34;15.55;;;8.10;;
35444;SDS011;21562;49.476;6.086;2023-04-05T10:20:14;10.95;;;5.30;;
35444;SDS011;21562;49.476;6.086;2023-04-05T10:28:16;11.85;;;4.82;;
35444;SDS011;21562;49.476;6.086;2023-04-05T10:30:58;7.82;;;4.47;;
35444;SDS011;21562;49.476;6.086;2023-04-05T10:33:45;10.90;;;5.90;;
35444;SDS011;21562;49.476;6.086;2023-04-05T10:41:20;5.90;;;4.20;;
35444;SDS011;21562;49.476;6.086;2023-04-05T10:43:46;10.15;;;4.70;;
35444;SDS011;21562;49.476;6.086;2023-04-05T10:46:13;7.53;;;5.00;;
35444;SDS011;21562;49.476;6.086;2023-04-05T10:51:38;8.57;;;5.20;;
35444;SDS011;21562;49.476;6.086;2023-04-05T10:54:06;10.68;;;5.60;;
35444;SDS011;21562;49.476;6.086;2023-04-05T10:56:33;11.10;;;4.90;;
35444;SDS011;21562;49.476;6.086;2023-04-05T10:59:00;9.20;;;5.65;;
35444;SDS011;21562;49.476;6.086;2023-04-05T11:01:27;11.00;;;5.63;;
35444;SDS011;21562;49.476;6.086;2023-04-05T11:03:53;14.48;;;5.47;;
35444;SDS011;21562;49.476;6.086;2023-04-05T11:06:23;14.57;;;5.20;;
35444;SDS011;21562;49.476;6.086;2023-04-05T11:08:53;9.25;;;5.82;;
35444;SDS011;21562;49.476;6.086;2023-04-05T11:11:21;13.02;;;5.57;;
35444;SDS011;21562;49.476;6.086;2023-04-05T11:16:18;9.90;;;5.43;;
35444;SDS011;21562;49.476;6.086;2023-04-05T11:18:51;13.32;;;5.35;;
35444;SDS011;21562;49.476;6.086;2023-04-05T11:21:21;13.32;;;7.85;;
35444;SDS011;21562;49.476;6.086;2023-04-05T11:24:01;11.88;;;5.00;;
35444;SDS011;21562;49.476;6.086;2023-04-05T11:29:08;9.65;;;5.22;;
35444;SDS011;21562;49.476;6.086;2023-04-05T11:31:35;7.68;;;5.10;;
35444;SDS011;21562;49.476;6.086;2023-04-05T11:34:06;8.63;;;4.90;;
35444;SDS011;21562;49.476;6.086;2023-04-05T11:36:42;10.90;;;5.10;;
35444;SDS011;21562;49.476;6.086;2023-04-05T11:42:00;8.45;;;5.95;;
35444;SDS011;21562;49.476;6.086;2023-04-05T11:44:44;10.98;;;5.80;;
35444;SDS011;21562;49.476;6.086;2023-04-05T11:47:11;8.43;;;5.28;;
35444;SDS011;21562;49.476;6.086;2023-04-05T11:49:38;12.68;;;5.68;;
35444;SDS011;21562;49.476;6.086;2023-04-05T11:52:11;9.75;;;5.85;;
35444;SDS011;21562;49.476;6.086;2023-04-05T11:54:40;11.23;;;4.90;;
35444;SDS011;21562;49.476;6.086;2023-04-05T11:57:20;12.80;;;6.25;;
35444;SDS011;21562;49.476;6.086;2023-04-05T11:59:48;9.95;;;6.07;;
35444;SDS011;21562;49.476;6.086;2023-04-05T12:02:18;10.45;;;5.75;;
35444;SDS011;21562;49.476;6.086;2023-04-05T12:04:44;12.65;;;6.13;;
35444;SDS011;21562;49.476;6.086;2023-04-05T12:07:19;12.18;;;5.90;;
35444;SDS011;21562;49.476;6.086;2023-04-05T12:12:36;9.68;;;5.80;;
35444;SDS011;21562;49.476;6.086;2023-04-05T12:15:04;9.93;;;5.95;;
35444;SDS011;21562;49.476;6.086;2023-04-05T12:17:48;11.73;;;6.60;;
35444;SDS011;21562;49.476;6.086;2023-04-05T12:20:16;11.10;;;6.68;;
35444;SDS011;21562;49.476;6.086;2023-04-05T12:22:44;11.13;;;5.57;;
35444;SDS011;21562;49.476;6.086;2023-04-05T12:25:12;13.70;;;5.93;;
35444;SDS011;21562;49.476;6.086;2023-04-05T12:27:39;10.75;;;5.88;;
35444;SDS011;21562;49.476;6.086;2023-04-05T12:30:15;11.23;;;5.15;;
35444;SDS011;21562;49.476;6.086;2023-04-05T12:32:51;9.70;;;5.38;;
35444;SDS011;21562;49.476;6.086;2023-04-05T12:37:57;9.65;;;4.90;;
35444;SDS011;21562;49.476;6.086;2023-04-05T12:40:24;8.77;;;5.10;;
35444;SDS011;21562;49.476;6.086;2023-04-05T12:42:54;11.63;;;5.95;;
35444;SDS011;21562;49.476;6.086;2023-04-05T12:45:26;11.00;;;5.43;;
35444;SDS011;21562;49.476;6.086;2023-04-05T12:47:55;13.95;;;5.75;;
35444;SDS011;21562;49.476;6.086;2023-04-05T12:50:28;17.75;;;7.43;;
35444;SDS011;21562;49.476;6.086;2023-04-05T12:52:58;10.10;;;5.03;;
35444;SDS011;21562;49.476;6.086;2023-04-05T12:55:25;9.65;;;5.57;;
35444;SDS011;21562;49.476;6.086;2023-04-05T12:57:55;9.63;;;5.70;;
35444;SDS011;21562;49.476;6.086;2023-04-05T13:00:27;15.05;;;5.45;;
35444;SDS011;21562;49.476;6.086;2023-04-05T13:02:54;6.30;;;4.70;;
35444;SDS011;21562;49.476;6.086;2023-04-05T13:05:22;9.75;;;5.43;;
35444;SDS011;21562;49.476;6.086;2023-04-05T13:07:50;9.43;;;5.28;;
35444;SDS011;21562;49.476;6.086;2023-04-05T13:10:16;10.50;;;5.47;;
35444;SDS011;21562;49.476;6.086;2023-04-05T13:12:46;10.77;;;6.00;;
35444;SDS011;21562;49.476;6.086;2023-04-05T13:15:12;13.32;;;5.88;;
35444;SDS011;21562;49.476;6.086;2023-04-05T13:17:39;8.43;;;5.20;;
35444;SDS011;21562;49.476;6.086;2023-04-05T13:20:05;12.02;;;5.13;;
35444;SDS011;21562;49.476;6.086;2023-04-05T13:22:32;9.07;;;5.35;;
35444;SDS011;21562;49.476;6.086;2023-04-05T13:24:57;13.63;;;5.82;;
35444;SDS011;21562;49.476;6.086;2023-04-05T13:27:23;11.43;;;6.00;;
35444;SDS011;21562;49.476;6.086;2023-04-05T13:29:49;9.43;;;5.70;;
35444;SDS011;21562;49.476;6.086;2023-04-05T13:32:14;11.98;;;5.78;;
35444;SDS011;21562;49.476;6.086;2023-04-05T13:34:40;11.25;;;4.68;;
35444;SDS011;21562;49.476;6.086;2023-04-05T13:37:06;7.90;;;4.60;;
35444;SDS011;21562;49.476;6.086;2023-04-05T13:39:31;8.68;;;4.82;;
35444;SDS011;21562;49.476;6.086;2023-04-05T13:41:57;9.77;;;5.10;;
35444;SDS011;21562;49.476;6.086;2023-04-05T13:44:23;11.73;;;5.82;;
35444;SDS011;21562;49.476;6.086;2023-04-05T13:46:48;11.73;;;5.57;;
35444;SDS011;21562;49.476;6.086;2023-04-05T13:49:14;9.98;;;5.28;;
35444;SDS011;21562;49.476;6.086;2023-04-05T13:51:39;12.63;;;6.22;;
35444;SDS011;21562;49.476;6.086;2023-04-05T13:54:08;14.05;;;5.68;;
35444;SDS011;21562;49.476;6.086;2023-04-05T13:56:38;9.70;;;6.18;;
35444;SDS011;21562;49.476;6.086;2023-04-05T13:59:04;12.23;;;5.20;;
35444;SDS011;21562;49.476;6.086;2023-04-05T14:01:30;8.23;;;5.32;;
35444;SDS011;21562;49.476;6.086;2023-04-05T14:03:57;10.63;;;4.90;;
35444;SDS011;21562;49.476;6.086;2023-04-05T14:06:22;12.50;;;5.40;;
35444;SDS011;21562;49.476;6.086;2023-04-05T14:08:48;11.77;;;4.97;;
35444;SDS011;21562;49.476;6.086;2023-04-05T14:11:19;7.45;;;5.68;;
35444;SDS011;21562;49.476;6.086;2023-04-05T14:13:46;9.43;;;5.32;;
35444;SDS011;21562;49.476;6.086;2023-04-05T14:16:12;7.13;;;4.45;;
35444;SDS011;21562;49.476;6.086;2023-04-05T14:18:37;11.10;;;5.10;;
35444;SDS011;21562;49.476;6.086;2023-04-05T14:21:03;6.78;;;5.20;;
35444;SDS011;21562;49.476;6.086;2023-04-05T14:23:29;9.55;;;5.75;;
35444;SDS011;21562;49.476;6.086;2023-04-05T14:25:54;9.18;;;5.30;;
35444;SDS011;21562;49.476;6.086;2023-04-05T14:28:20;8.65;;;6.03;;
35444;SDS011;21562;49.476;6.086;2023-04-05T14:30:45;11.40;;;5.50;;
35444;SDS011;21562;49.476;6.086;2023-04-05T14:33:11;10.18;;;5.05;;
35444;SDS011;21562;49.476;6.086;2023-04-05T14:35:38;8.95;;;5.00;;
35444;SDS011;21562;49.476;6.086;2023-04-05T14:38:04;9.32;;;6.32;;
35444;SDS011;21562;49.476;6.086;2023-04-05T14:40:30;7.78;;;4.57;;
35444;SDS011;21562;49.476;6.086;2023-04-05T14:42:56;9.88;;;5.35;;
35444;SDS011;21562;49.476;6.086;2023-04-05T14:45:22;8.80;;;5.05;;
35444;SDS011;21562;49.476;6.086;2023-04-05T14:47:51;11.68;;;5.32;;
35444;SDS011;21562;49.476;6.086;2023-04-05T14:50:16;12.27;;;4.90;;
35444;SDS011;21562;49.476;6.086;2023-04-05T14:52:42;8.88;;;5.50;;
35444;SDS011;21562;49.476;6.086;2023-04-05T14:55:09;11.07;;;5.65;;
35444;SDS011;21562;49.476;6.086;2023-04-05T14:57:37;6.60;;;5.28;;
35444;SDS011;21562;49.476;6.086;2023-04-05T15:00:03;12.20;;;5.70;;
35444;SDS011;21562;49.476;6.086;2023-04-05T15:02:31;12.15;;;5.22;;
35444;SDS011;21562;49.476;6.086;2023-04-05T15:04:57;8.05;;;5.40;;
35444;SDS011;21562;49.476;6.086;2023-04-05T15:07:25;9.52;;;5.70;;
35444;SDS011;21562;49.476;6.086;2023-04-05T15:09:51;8.77;;;6.03;;
35444;SDS011;21562;49.476;6.086;2023-04-05T15:12:17;12.32;;;5.68;;
35444;SDS011;21562;49.476;6.086;2023-04-05T15:14:43;9.35;;;5.38;;
35444;SDS011;21562;49.476;6.086;2023-04-05T15:17:09;8.40;;;4.82;;
35444;SDS011;21562;49.476;6.086;2023-04-05T15:19:35;9.45;;;5.38;;
35444;SDS011;21562;49.476;6.086;2023-04-05T15:22:01;7.57;;;5.55;;
35444;SDS011;21562;49.476;6.086;2023-04-05T15:24:27;9.52;;;5.75;;
35444;SDS011;21562;49.476;6.086;2023-04-05T15:26:53;10.60;;;5.20;;
35444;SDS011;21562;49.476;6.086;2023-04-05T15:29:25;14.73;;;6.05;;